Time;durP1;ratioP1;P1;durP2;ratioP2;P2;SDS_P1;SDS_P2;PMS_P1;PMS_P2;Temp;Humidity;BMP_temperature;BMP_pressure;BME280_temperature;BME280_humidity;BME280_pressure;Samples;Min_cycle;Max_cycle;Signal;HPM_P1;HPM_P2
2022/04/28 00:00:24;;;;;;;12.50;11.30;;;8.20;99.90;;;;;;4893643;29;20208;-85
2022/04/28 00:02:53;;;;;;;11.20;10.27;;;8.10;99.90;;;;;;4898729;29;20237;-86
2022/04/28 00:05:20;;;;;;;10.05;9.25;;;8.10;99.90;;;;;;4901181;29;20297;-86
2022/04/28 00:07:47;;;;;;;11.18;10.15;;;8.10;99.90;;;;;;4892648;29;20199;-86
2022/04/28 00:10:15;;;;;;;11.95;11.02;;;8.00;99.90;;;;;;4893067;29;20204;-83
2022/04/28 00:12:42;;;;;;;10.93;9.90;;;8.00;99.90;;;;;;4893712;29;20310;-83
2022/04/28 00:15:10;;;;;;;11.27;10.15;;;8.00;99.90;;;;;;4898221;29;20199;-86
2022/04/28 00:17:37;;;;;;;10.57;9.52;;;8.10;99.90;;;;;;4913552;29;20219;-84
2022/04/28 00:20:07;;;;;;;11.43;9.50;;;8.00;99.90;;;;;;4911678;29;20211;-82
2022/04/28 00:22:34;;;;;;;10.70;9.68;;;8.00;99.90;;;;;;4905455;29;20204;-86
2022/04/28 00:25:01;;;;;;;9.73;8.77;;;8.00;99.90;;;;;;4902107;29;20207;-84
2022/04/28 00:27:29;;;;;;;10.98;9.38;;;8.00;99.90;;;;;;4899685;29;20617;-86
2022/04/28 00:29:56;;;;;;;12.52;11.32;;;8.00;99.90;;;;;;4911208;29;20199;-84
2022/04/28 00:32:23;;;;;;;10.68;9.57;;;8.00;99.90;;;;;;4906298;29;20289;-84
2022/04/28 00:34:49;;;;;;;11.80;10.80;;;8.10;99.90;;;;;;4957247;23;20243;-79
2022/04/28 00:37:18;;;;;;;10.52;9.52;;;8.00;99.90;;;;;;4939491;29;20560;-79
2022/04/28 00:39:45;;;;;;;10.63;9.68;;;8.10;99.90;;;;;;4944107;29;20280;-79
2022/04/28 00:42:13;;;;;;;10.73;9.68;;;8.10;99.90;;;;;;4937504;29;20219;-79
2022/04/28 00:44:40;;;;;;;11.45;10.48;;;8.10;99.90;;;;;;4924557;29;20241;-78
2022/04/28 00:47:08;;;;;;;11.80;10.80;;;8.10;99.90;;;;;;4923745;29;20688;-78
2022/04/28 00:52:21;;;;;;;11.80;10.65;;;8.10;99.90;;;;;;4936317;29;20205;-79
2022/04/28 00:54:51;;;;;;;12.30;11.13;;;8.00;99.90;;;;;;4935890;29;20226;-79
2022/04/28 00:57:19;;;;;;;10.68;9.60;;;8.00;99.90;;;;;;4943783;29;20233;-79
2022/04/28 00:59:48;;;;;;;9.48;8.18;;;8.00;99.90;;;;;;4933816;29;20214;-79
2022/04/28 01:02:18;;;;;;;11.93;10.75;;;8.10;99.90;;;;;;4924809;29;20210;-78
2022/04/28 01:04:45;;;;;;;11.75;9.82;;;8.00;99.90;;;;;;4934342;29;20232;-79
2022/04/28 01:07:12;;;;;;;13.02;9.98;;;8.00;99.90;;;;;;4927779;29;20214;-78
2022/04/28 01:09:41;;;;;;;10.88;9.88;;;8.00;99.90;;;;;;4925499;29;20231;-79
2022/04/28 01:12:12;;;;;;;10.55;9.43;;;7.90;99.90;;;;;;4924656;29;20217;-79
2022/04/28 01:14:39;;;;;;;10.15;9.25;;;7.90;99.90;;;;;;4924174;29;20305;-79
2022/04/28 01:17:05;;;;;;;10.48;9.15;;;7.90;99.90;;;;;;4930730;29;20632;-76
2022/04/28 01:19:32;;;;;;;11.20;10.10;;;7.80;99.90;;;;;;4925951;29;20210;-79
2022/04/28 01:22:00;;;;;;;13.07;9.90;;;7.90;99.90;;;;;;4930637;29;20208;-79
2022/04/28 01:24:27;;;;;;;12.18;9.48;;;7.80;99.90;;;;;;4942673;29;20229;-79
2022/04/28 01:26:55;;;;;;;11.75;10.65;;;7.70;99.90;;;;;;4936323;29;20217;-79
2022/04/28 01:29:22;;;;;;;10.95;9.90;;;7.70;99.90;;;;;;4923993;29;20233;-78
2022/04/28 01:31:50;;;;;;;10.18;9.27;;;7.70;99.90;;;;;;4928601;29;20206;-79
2022/04/28 01:34:16;;;;;;;10.95;9.88;;;7.70;99.90;;;;;;4932920;29;20242;-79
2022/04/28 01:36:43;;;;;;;11.10;10.07;;;7.70;99.90;;;;;;4938328;29;20252;-79
2022/04/28 01:39:12;;;;;;;12.18;10.70;;;7.60;99.90;;;;;;4932312;29;20214;-78
2022/04/28 01:41:38;;;;;;;13.70;10.60;;;7.70;99.90;;;;;;4923318;29;20210;-78
2022/04/28 01:44:05;;;;;;;12.80;11.50;;;7.60;99.90;;;;;;4930023;29;20226;-79
2022/04/28 01:46:32;;;;;;;13.02;11.65;;;7.60;99.90;;;;;;4942313;29;20209;-79
2022/04/28 01:49:00;;;;;;;13.13;10.77;;;7.60;99.90;;;;;;4935401;29;20222;-79
2022/04/28 01:56:56;;;;;;;10.48;9.57;;;7.60;99.90;;;;;;4930116;29;20232;-79
2022/04/28 01:59:23;;;;;;;11.73;9.77;;;7.50;99.90;;;;;;4942778;29;20221;-79
2022/04/28 02:01:50;;;;;;;12.90;11.60;;;7.50;99.90;;;;;;4936346;29;20207;-79
2022/04/28 02:04:16;;;;;;;11.60;10.27;;;7.50;99.90;;;;;;4924178;29;20680;-79
2022/04/28 02:06:43;;;;;;;11.40;10.40;;;7.40;99.90;;;;;;4922937;29;20199;-81
2022/04/28 02:09:12;;;;;;;10.57;9.48;;;7.40;99.90;;;;;;4924133;29;20555;-81
2022/04/28 02:11:38;;;;;;;11.18;10.18;;;7.40;99.90;;;;;;4922335;29;20214;-81
2022/04/28 02:14:05;;;;;;;10.77;9.75;;;7.40;99.90;;;;;;4924071;29;20226;-81
2022/04/28 02:16:32;;;;;;;12.00;10.90;;;7.30;99.90;;;;;;4922254;29;20222;-81
2022/04/28 02:18:59;;;;;;;12.02;10.82;;;7.30;99.90;;;;;;4930949;29;20206;-81
2022/04/28 02:21:25;;;;;;;13.20;12.02;;;7.20;99.90;;;;;;4940980;29;20214;-81
2022/04/28 02:23:52;;;;;;;12.85;11.65;;;7.20;99.90;;;;;;4930718;29;20717;-81
2022/04/28 02:26:20;;;;;;;10.93;9.40;;;7.20;99.90;;;;;;4927667;29;20194;-81
2022/04/28 02:28:47;;;;;;;11.32;9.70;;;7.20;99.90;;;;;;4933086;29;20680;-81
2022/04/28 02:31:13;;;;;;;11.48;10.10;;;7.10;99.90;;;;;;4940763;29;20220;-81
2022/04/28 02:33:40;;;;;;;10.52;9.63;;;7.10;99.90;;;;;;4939302;29;20718;-81
2022/04/28 02:36:07;;;;;;;12.48;11.27;;;7.10;99.90;;;;;;4941452;29;20225;-81
2022/04/28 02:38:34;;;;;;;11.55;10.55;;;7.10;99.90;;;;;;4937922;29;20213;-81
2022/04/28 02:41:01;;;;;;;12.30;11.18;;;7.00;99.90;;;;;;4938100;29;20213;-81
2022/04/28 02:43:29;;;;;;;12.13;10.70;;;7.00;99.90;;;;;;4931347;29;20222;-80
2022/04/28 02:45:55;;;;;;;12.32;10.95;;;7.00;99.90;;;;;;4921866;29;20218;-81
2022/04/28 02:48:22;;;;;;;11.65;10.30;;;7.00;99.90;;;;;;4926569;29;20198;-79
2022/04/28 02:50:49;;;;;;;10.68;9.68;;;7.00;99.90;;;;;;4929280;29;20211;-79
2022/04/28 02:53:16;;;;;;;11.43;10.32;;;7.00;99.90;;;;;;4922091;29;20226;-77
2022/04/28 02:55:43;;;;;;;12.70;10.25;;;6.90;99.90;;;;;;4922283;29;20207;-79
2022/04/28 02:58:10;;;;;;;12.48;10.23;;;6.90;99.90;;;;;;4922899;29;20223;-79
2022/04/28 03:00:39;;;;;;;13.70;11.32;;;6.90;99.90;;;;;;4939572;29;20197;-78
2022/04/28 03:03:06;;;;;;;12.63;11.43;;;6.80;99.90;;;;;;4938748;29;20209;-79
2022/04/28 03:10:46;;;;;;;11.85;10.50;;;6.80;99.90;;;;;;4922165;29;20214;-79
2022/04/28 03:11:03;;;;;;;11.15;10.02;;;6.80;99.90;;;;;;4940094;29;20200;-79
2022/04/28 03:13:31;;;;;;;13.27;11.32;;;6.80;99.90;;;;;;4938733;29;20226;-78
2022/04/28 03:16:00;;;;;;;13.07;10.93;;;6.80;99.90;;;;;;4940816;29;20249;-79
2022/04/28 03:18:26;;;;;;;13.10;11.75;;;6.70;99.90;;;;;;4924690;29;20347;-78
2022/04/28 03:20:54;;;;;;;11.32;10.32;;;6.70;99.90;;;;;;4921435;29;20217;-79
2022/04/28 03:23:21;;;;;;;13.35;12.05;;;6.70;99.90;;;;;;4935912;29;20234;-79
2022/04/28 03:25:49;;;;;;;12.10;10.90;;;6.60;99.90;;;;;;4938700;29;20205;-79
2022/04/28 03:28:16;;;;;;;12.48;11.30;;;6.60;99.90;;;;;;4937171;29;20201;-79
2022/04/28 03:30:43;;;;;;;13.52;12.13;;;6.60;99.90;;;;;;4921111;29;20221;-81
2022/04/28 03:33:12;;;;;;;11.68;10.57;;;6.60;99.90;;;;;;4926503;29;20248;-81
2022/04/28 03:35:38;;;;;;;12.57;10.48;;;6.50;99.90;;;;;;4940705;29;20217;-81
2022/04/28 03:38:07;;;;;;;12.43;11.23;;;6.50;99.90;;;;;;4939889;29;20259;-78
2022/04/28 03:40:34;;;;;;;11.70;10.50;;;6.50;99.90;;;;;;4938283;29;20234;-81
2022/04/28 03:43:01;;;;;;;13.82;12.63;;;6.50;99.90;;;;;;4925259;29;20209;-81
2022/04/28 03:45:28;;;;;;;12.35;11.10;;;6.40;99.90;;;;;;4924266;29;20214;-81
2022/04/28 03:47:55;;;;;;;15.00;11.20;;;6.30;99.90;;;;;;4923195;29;20266;-81
2022/04/28 03:50:23;;;;;;;15.18;11.73;;;6.30;99.90;;;;;;4921690;29;20563;-81
2022/04/28 03:52:50;;;;;;;11.63;10.52;;;6.30;99.90;;;;;;4921812;29;20595;-81
2022/04/28 03:55:17;;;;;;;12.23;11.00;;;6.30;99.90;;;;;;4921702;29;20219;-81
2022/04/28 03:57:44;;;;;;;16.35;11.52;;;6.30;99.90;;;;;;4923474;29;20596;-81
2022/04/28 04:00:12;;;;;;;14.10;11.95;;;6.30;99.90;;;;;;4923502;29;20210;-79
2022/04/28 04:02:38;;;;;;;13.75;12.48;;;6.30;99.90;;;;;;4941227;29;20220;-78
2022/04/28 04:05:06;;;;;;;14.77;13.32;;;6.30;99.90;;;;;;4937696;29;20683;-79
2022/04/28 04:07:35;;;;;;;13.27;11.90;;;6.20;99.90;;;;;;4940330;29;20225;-79
2022/04/28 04:10:02;;;;;;;14.07;12.18;;;6.20;99.90;;;;;;4923841;29;20229;-79
2022/04/28 04:12:29;;;;;;;14.43;12.60;;;6.20;99.90;;;;;;4921293;29;20719;-79
2022/04/28 04:14:56;;;;;;;13.95;12.75;;;6.20;99.90;;;;;;4938547;29;20229;-77
2022/04/28 04:17:23;;;;;;;13.13;11.73;;;6.10;99.90;;;;;;4939867;29;20225;-79
2022/04/28 04:19:49;;;;;;;13.57;12.20;;;6.00;99.90;;;;;;4922825;29;20210;-78
2022/04/28 04:22:16;;;;;;;13.05;11.70;;;6.00;99.90;;;;;;4921724;29;20223;-78
2022/04/28 04:24:44;;;;;;;15.57;14.05;;;6.00;99.90;;;;;;4937216;29;20248;-79
2022/04/28 04:27:11;;;;;;;16.38;14.57;;;6.00;99.90;;;;;;4938959;29;20575;-79
2022/04/28 04:29:38;;;;;;;13.13;11.77;;;6.00;99.90;;;;;;4939311;29;20210;-79
2022/04/28 04:32:24;;;;;;;12.65;11.35;;;6.00;99.90;;;;;;4940054;29;20221;-77
2022/04/28 04:34:52;;;;;;;14.63;13.13;;;6.10;99.90;;;;;;4936850;29;20285;-79
2022/04/28 04:37:20;;;;;;;14.93;11.60;;;6.10;99.90;;;;;;4939832;29;20230;-79
2022/04/28 04:39:48;;;;;;;14.65;12.95;;;6.10;99.90;;;;;;4936827;29;20228;-78
2022/04/28 04:42:15;;;;;;;14.57;13.07;;;6.20;99.90;;;;;;4939487;29;20671;-79
2022/04/28 04:44:42;;;;;;;15.10;13.68;;;6.20;99.90;;;;;;4937130;29;20234;-79
2022/04/28 04:47:09;;;;;;;11.63;10.60;;;6.20;99.90;;;;;;4920854;29;20225;-77
2022/04/28 04:49:35;;;;;;;18.52;13.32;;;6.20;99.90;;;;;;4925263;29;20213;-79
2022/04/28 04:52:02;;;;;;;13.95;11.70;;;6.30;99.90;;;;;;4940994;29;20263;-79
2022/04/28 04:54:29;;;;;;;14.15;12.45;;;6.20;99.90;;;;;;4932236;29;20639;-78
2022/04/28 04:56:57;;;;;;;12.13;10.93;;;6.20;99.90;;;;;;4924829;29;20230;-79
2022/04/28 04:59:24;;;;;;;11.40;10.23;;;6.20;99.90;;;;;;4925320;29;20218;-79
2022/04/28 05:01:51;;;;;;;13.32;12.07;;;6.30;99.90;;;;;;4924833;29;20217;-79
2022/04/28 05:04:17;;;;;;;13.07;11.43;;;6.30;99.90;;;;;;4924412;29;20234;-78
2022/04/28 05:06:44;;;;;;;12.35;11.25;;;6.40;99.90;;;;;;4924906;29;20214;-79
2022/04/28 05:09:11;;;;;;;15.30;11.60;;;6.30;99.90;;;;;;4924499;29;20214;-79
2022/04/28 05:11:37;;;;;;;13.40;11.98;;;6.40;99.90;;;;;;4937921;29;20205;-78
2022/04/28 05:14:05;;;;;;;13.90;12.45;;;6.40;99.90;;;;;;4932343;29;20234;-79
2022/04/28 05:16:32;;;;;;;13.60;12.35;;;6.50;99.90;;;;;;4923984;29;20589;-79
2022/04/28 05:18:59;;;;;;;13.60;12.20;;;6.60;99.90;;;;;;4932778;29;20287;-79
2022/04/28 05:21:26;;;;;;;16.02;13.95;;;6.60;99.90;;;;;;4942372;29;20217;-78
2022/04/28 05:23:52;;;;;;;13.30;12.07;;;6.60;99.90;;;;;;4935100;29;20222;-79
2022/04/28 05:26:19;;;;;;;15.00;13.48;;;6.70;99.90;;;;;;4923749;29;20619;-79
2022/04/28 05:28:47;;;;;;;14.48;12.95;;;6.70;99.90;;;;;;4927166;29;20822;-79
2022/04/28 05:31:15;;;;;;;15.13;13.55;;;6.80;99.90;;;;;;4925194;29;20278;-79
2022/04/28 05:33:42;;;;;;;19.05;14.98;;;6.90;99.90;;;;;;4942566;29;20243;-79
2022/04/28 05:36:09;;;;;;;15.43;13.75;;;7.00;99.90;;;;;;4941817;29;20244;-81
2022/04/28 05:38:36;;;;;;;17.02;14.50;;;7.00;99.90;;;;;;4922919;29;20845;-79
2022/04/28 05:41:04;;;;;;;18.00;13.77;;;7.10;99.90;;;;;;4923173;29;20214;-79
2022/04/28 05:46:17;;;;;;;20.55;15.77;;;7.30;99.90;;;;;;4923719;29;20242;-80
2022/04/28 05:48:44;;;;;;;16.95;14.60;;;7.50;99.90;;;;;;4922981;29;20851;-80
2022/04/28 05:51:12;;;;;;;16.25;14.60;;;7.60;99.90;;;;;;4932161;29;20228;-80
2022/04/28 05:53:38;;;;;;;18.58;14.55;;;7.70;99.90;;;;;;4941943;29;20257;-79
2022/04/28 05:56:06;;;;;;;16.27;14.57;;;7.80;99.90;;;;;;4932995;29;20208;-80
2022/04/28 05:58:33;;;;;;;14.70;13.20;;;7.90;99.90;;;;;;4923178;29;20597;-78
2022/04/28 06:01:00;;;;;;;17.13;13.68;;;8.10;99.90;;;;;;4924182;29;20202;-80
2022/04/28 06:03:28;;;;;;;15.45;13.85;;;8.20;99.90;;;;;;4923058;29;20234;-79
2022/04/28 06:05:55;;;;;;;14.93;13.38;;;8.40;99.90;;;;;;4923945;29;20210;-80
2022/04/28 06:08:22;;;;;;;14.32;12.73;;;8.50;99.90;;;;;;4922767;29;20210;-81
2022/04/28 06:10:49;;;;;;;14.02;12.63;;;8.60;99.90;;;;;;4937274;29;20206;-81
2022/04/28 06:13:15;;;;;;;15.07;13.57;;;8.70;99.90;;;;;;4941271;29;20573;-81
2022/04/28 06:15:42;;;;;;;13.35;12.05;;;8.90;99.90;;;;;;4930561;29;20583;-81
2022/04/28 06:18:09;;;;;;;13.45;12.05;;;9.00;99.90;;;;;;4930299;29;20219;-79
2022/04/28 06:20:37;;;;;;;12.57;10.65;;;9.10;99.90;;;;;;4929696;29;20209;-80
2022/04/28 06:23:04;;;;;;;12.70;11.38;;;9.30;99.90;;;;;;4931465;29;20203;-81
2022/04/28 06:25:31;;;;;;;11.98;10.50;;;9.40;99.90;;;;;;4929431;29;20208;-81
2022/04/28 06:27:58;;;;;;;11.75;10.02;;;9.50;99.90;;;;;;4930076;29;20206;-81
2022/04/28 06:30:25;;;;;;;10.37;9.47;;;9.60;99.90;;;;;;4930881;29;20199;-81
2022/04/28 06:32:52;;;;;;;9.95;9.00;;;9.70;99.90;;;;;;4930313;29;20937;-80
2022/04/28 06:35:18;;;;;;;11.10;10.00;;;9.80;99.90;;;;;;4994410;23;20565;-84
2022/04/28 06:37:47;;;;;;;11.80;10.60;;;9.90;99.90;;;;;;4921576;29;20530;-82
2022/04/28 06:40:14;;;;;;;9.23;8.38;;;10.10;99.90;;;;;;4918029;29;20208;-82
2022/04/28 06:42:43;;;;;;;10.25;9.30;;;10.20;99.90;;;;;;4919934;29;20216;-81
2022/04/28 06:45:11;;;;;;;18.85;9.23;;;10.20;99.90;;;;;;4901357;29;20226;-86
2022/04/28 06:47:38;;;;;;;9.85;8.85;;;10.40;99.90;;;;;;4894197;29;20221;-85
2022/04/28 06:50:06;;;;;;;9.73;8.77;;;10.50;99.90;;;;;;4886759;29;20221;-85
2022/04/28 06:52:35;;;;;;;9.30;8.40;;;10.60;99.90;;;;;;4885674;29;20475;-87
2022/04/28 06:55:03;;;;;;;9.47;8.50;;;10.80;99.90;;;;;;4895527;29;20489;-82
2022/04/28 06:57:30;;;;;;;9.47;7.70;;;10.90;99.90;;;;;;4888459;29;20538;-82
2022/04/28 06:59:57;;;;;;;8.73;8.03;;;11.00;99.90;;;;;;4905990;29;20516;-83
2022/04/28 07:02:24;;;;;;;8.13;6.65;;;11.00;99.90;;;;;;4906264;29;20460;-86
2022/04/28 07:04:51;;;;;;;7.43;6.83;;;11.20;99.90;;;;;;4906940;29;20225;-85
2022/04/28 07:07:18;;;;;;;5.87;5.37;;;11.30;99.90;;;;;;4906864;29;20467;-81
2022/04/28 07:09:45;;;;;;;8.20;7.53;;;11.40;99.90;;;;;;4909323;29;20463;-84
2022/04/28 07:12:13;;;;;;;8.47;6.03;;;11.50;99.90;;;;;;4909062;29;20477;-84
2022/04/28 07:14:40;;;;;;;9.20;6.53;;;11.60;99.90;;;;;;4908150;29;20483;-86
2022/04/28 07:17:07;;;;;;;6.80;5.57;;;11.60;99.90;;;;;;4905879;29;20473;-86
2022/04/28 07:19:34;;;;;;;8.10;7.40;;;11.60;99.90;;;;;;4908232;29;20463;-86
2022/04/28 07:22:05;;;;;;;7.23;6.10;;;11.70;99.90;;;;;;4907257;29;20447;-85
2022/04/28 07:24:31;;;;;;;7.23;6.53;;;11.80;99.90;;;;;;4908495;29;20497;-85
2022/04/28 07:26:58;;;;;;;8.17;7.37;;;11.90;99.90;;;;;;4908009;29;20469;-85
2022/04/28 07:29:26;;;;;;;6.63;6.03;;;12.00;99.90;;;;;;4907666;29;20451;-85
2022/04/28 07:31:53;;;;;;;6.17;5.70;;;12.10;99.90;;;;;;4908155;29;20469;-85
2022/04/28 07:34:20;;;;;;;5.93;5.43;;;12.10;99.90;;;;;;4908036;29;20513;-85
2022/04/28 07:36:47;;;;;;;6.27;5.77;;;12.20;99.90;;;;;;4908545;29;20493;-83
2022/04/28 07:39:14;;;;;;;6.40;5.83;;;12.30;99.90;;;;;;4908466;29;21057;-85
2022/04/28 07:41:41;;;;;;;7.63;6.87;;;12.40;99.90;;;;;;4908039;29;20536;-85
2022/04/28 07:44:08;;;;;;;8.87;6.73;;;12.50;99.90;;;;;;4908350;29;20482;-84
2022/04/28 07:46:37;;;;;;;7.33;6.80;;;12.40;99.90;;;;;;4908873;29;20567;-85
2022/04/28 07:49:04;;;;;;;7.47;6.77;;;12.50;99.90;;;;;;4909088;29;20545;-84
2022/04/28 07:51:30;;;;;;;7.43;6.53;;;12.60;99.90;;;;;;4909685;29;20550;-85
2022/04/28 07:53:57;;;;;;;7.03;6.33;;;12.70;99.90;;;;;;4909266;29;20478;-82
2022/04/28 07:56:24;;;;;;;7.37;6.77;;;12.80;99.90;;;;;;4908910;29;20488;-85
2022/04/28 07:58:51;;;;;;;6.87;6.37;;;12.90;99.90;;;;;;4908045;29;20565;-85
2022/04/28 08:01:18;;;;;;;8.13;6.70;;;13.00;99.90;;;;;;4909135;29;20451;-83
2022/04/28 08:03:46;;;;;;;6.70;6.20;;;13.10;99.90;;;;;;4909051;29;20486;-84
2022/04/28 08:06:13;;;;;;;7.07;5.70;;;13.10;99.70;;;;;;4907783;29;20469;-86
2022/04/28 08:08:40;;;;;;;6.70;6.00;;;13.20;99.30;;;;;;4908191;29;20454;-82
2022/04/28 08:11:07;;;;;;;6.57;5.97;;;13.40;98.40;;;;;;4908239;29;20466;-84
2022/04/28 08:13:35;;;;;;;5.67;5.17;;;13.40;98.20;;;;;;4906716;29;20466;-83
2022/04/28 08:16:03;;;;;;;5.73;5.33;;;13.60;98.00;;;;;;4908762;29;20460;-83
2022/04/28 08:18:30;;;;;;;7.43;5.50;;;13.60;97.00;;;;;;4908918;29;20501;-85
2022/04/28 08:21:00;;;;;;;5.73;5.30;;;13.60;95.80;;;;;;4908246;29;20463;-85
2022/04/28 08:23:27;;;;;;;5.50;5.10;;;13.70;95.80;;;;;;4907627;29;20448;-85
2022/04/28 08:25:53;;;;;;;5.80;5.40;;;13.80;94.50;;;;;;4908472;29;20521;-85
2022/04/28 08:28:20;;;;;;;5.40;4.90;;;13.80;94.20;;;;;;4910966;29;20452;-84
2022/04/28 08:30:47;;;;;;;6.80;6.20;;;13.90;94.40;;;;;;4910183;29;20462;-86
2022/04/28 08:33:14;;;;;;;6.87;5.63;;;13.90;94.60;;;;;;4910627;29;20459;-84
2022/04/28 08:35:41;;;;;;;5.63;5.20;;;14.00;94.20;;;;;;4910444;29;20480;-86
2022/04/28 08:38:09;;;;;;;5.87;5.43;;;14.10;93.70;;;;;;4910401;29;20495;-86
2022/04/28 08:40:36;;;;;;;6.73;6.23;;;14.20;92.90;;;;;;4911097;29;20460;-86
2022/04/28 08:43:05;;;;;;;5.20;4.80;;;14.20;93.50;;;;;;4910827;29;20548;-84
2022/04/28 08:45:39;;;;;;;4.97;4.57;;;14.30;92.90;;;;;;4910168;29;20475;-86
2022/04/28 08:48:07;;;;;;;5.03;4.57;;;14.40;92.80;;;;;;4909944;29;20486;-86
2022/04/28 08:50:34;;;;;;;5.13;4.63;;;14.60;92.50;;;;;;4910995;29;20491;-85
2022/04/28 08:53:04;;;;;;;4.77;4.37;;;14.60;91.50;;;;;;4912574;29;20464;-85
2022/04/28 08:55:33;;;;;;;5.20;4.80;;;14.80;91.00;;;;;;4913260;29;20481;-82
2022/04/28 08:58:00;;;;;;;5.00;4.50;;;14.90;90.30;;;;;;4913310;29;20491;-84
2022/04/28 09:00:27;;;;;;;4.43;4.13;;;14.90;91.30;;;;;;4913530;29;20459;-85
2022/04/28 09:02:53;;;;;;;5.33;4.83;;;15.00;90.70;;;;;;4913376;29;20845;-86
2022/04/28 09:05:20;;;;;;;5.63;5.00;;;15.10;90.40;;;;;;4911997;29;20475;-86
2022/04/28 09:07:48;;;;;;;4.90;4.50;;;15.30;87.10;;;;;;4911969;29;20849;-83
2022/04/28 09:10:30;;;;;;;4.50;4.17;;;15.30;90.00;;;;;;4911514;29;20966;-85
2022/04/28 09:14:08;;;;;;;6.80;4.73;;;15.30;90.20;;;;;;4910766;29;21092;-86
2022/04/28 09:15:48;;;;;;;5.60;5.20;;;15.50;90.30;;;;;;4910452;29;20555;-84
2022/04/28 09:18:16;;;;;;;4.63;3.90;;;15.50;82.80;;;;;;4909976;29;20491;-85
2022/04/28 09:20:43;;;;;;;5.17;4.63;;;15.60;83.90;;;;;;4910110;29;20858;-85
2022/04/28 09:23:11;;;;;;;4.80;4.40;;;15.60;84.80;;;;;;4909173;29;20456;-84
2022/04/28 09:25:38;;;;;;;5.23;4.40;;;15.70;85.40;;;;;;4908690;29;20478;-86
2022/04/28 09:28:09;;;;;;;4.33;4.00;;;15.70;85.60;;;;;;4909684;29;20451;-85
2022/04/28 09:30:41;;;;;;;5.10;4.60;;;15.80;84.20;;;;;;4909377;29;20488;-83
2022/04/28 09:33:12;;;;;;;4.73;4.33;;;15.90;85.10;;;;;;4911377;29;20448;-83
2022/04/28 09:35:46;;;;;;;4.30;3.97;;;16.00;83.50;;;;;;4910753;29;20494;-85
2022/04/28 09:38:13;;;;;;;4.93;4.33;;;16.20;79.50;;;;;;4908902;29;20534;-84
2022/04/28 09:43:26;;;;;;;4.40;4.00;;;16.30;78.10;;;;;;4910559;29;20438;-84
2022/04/28 09:45:52;;;;;;;4.67;4.30;;;16.30;73.70;;;;;;4909709;29;20464;-84
2022/04/28 09:48:20;;;;;;;5.00;4.50;;;16.40;75.20;;;;;;4907876;29;20463;-86
2022/04/28 09:50:48;;;;;;;4.30;3.90;;;16.40;72.50;;;;;;4907605;29;20826;-86
2022/04/28 09:53:15;;;;;;;3.73;3.27;;;16.60;71.80;;;;;;4906956;29;20467;-83
2022/04/28 09:55:45;;;;;;;5.40;5.00;;;16.70;74.10;;;;;;4901763;29;20485;-84
2022/04/28 09:58:34;;;;;;;4.40;4.00;;;16.80;75.60;;;;;;4906726;29;20468;-87
2022/04/28 10:01:03;;;;;;;3.83;3.53;;;17.00;75.50;;;;;;4895509;29;20456;-83
2022/04/28 10:03:33;;;;;;;3.43;3.23;;;17.10;73.20;;;;;;4914943;29;20469;-85
2022/04/28 10:06:02;;;;;;;3.67;3.33;;;17.20;73.20;;;;;;4913197;29;20463;-83
2022/04/28 10:08:30;;;;;;;3.67;3.47;;;17.30;71.00;;;;;;4919126;29;20453;-86
2022/04/28 10:10:58;;;;;;;4.47;4.07;;;17.30;69.40;;;;;;4933748;29;20466;-84
2022/04/28 10:13:29;;;;;;;4.30;4.10;;;17.40;68.60;;;;;;4930288;29;20568;-82
2022/04/28 10:16:02;;;;;;;4.20;3.90;;;17.40;67.90;;;;;;4901384;29;20487;-82
2022/04/28 10:18:44;;;;;;;4.80;4.50;;;17.50;69.20;;;;;;4903385;29;20537;-83
2022/04/28 10:21:15;;;;;;;4.00;3.70;;;17.60;68.90;;;;;;4909519;29;20517;-83
2022/04/28 10:32:25;;;;;;;4.57;4.20;;;18.30;68.40;;;;;;4917077;29;20938;-81
2022/04/28 10:35:03;;;;;;;4.83;4.43;;;18.40;66.20;;;;;;4913901;29;20465;-82
2022/04/28 10:37:34;;;;;;;4.13;3.83;;;18.50;66.30;;;;;;4915587;29;20485;-84
2022/04/28 10:40:03;;;;;;;3.80;3.43;;;18.60;68.90;;;;;;4907419;29;20573;-84
2022/04/28 10:42:56;;;;;;;4.43;3.90;;;18.80;66.10;;;;;;4917884;29;20435;-82
2022/04/28 10:45:25;;;;;;;4.37;3.97;;;18.80;63.60;;;;;;4921075;29;20474;-82
2022/04/28 10:48:21;;;;;;;4.43;4.13;;;18.90;66.90;;;;;;4890490;29;20461;-83
2022/04/28 10:51:06;;;;;;;4.00;3.67;;;19.00;65.80;;;;;;4889875;29;20463;-84
2022/04/28 10:53:35;;;;;;;4.27;3.87;;;19.10;62.80;;;;;;4887539;29;20463;-85
2022/04/28 10:56:12;;;;;;;4.20;3.90;;;19.20;63.80;;;;;;4880426;29;20952;-84
2022/04/28 10:58:39;;;;;;;4.40;4.10;;;19.40;66.60;;;;;;4881003;29;20586;-85
2022/04/28 11:01:06;;;;;;;3.60;3.30;;;19.60;65.50;;;;;;4882308;29;20460;-85
2022/04/28 11:09:05;;;;;;;4.10;3.80;;;21.00;59.10;;;;;;4909605;29;20470;-86
2022/04/28 11:11:43;;;;;;;3.83;3.47;;;21.70;63.10;;;;;;4906019;29;20991;-86
2022/04/28 11:14:10;;;;;;;4.53;3.67;;;22.40;59.20;;;;;;4896777;29;20484;-85
2022/04/28 11:16:37;;;;;;;4.63;3.80;;;23.00;58.10;;;;;;4886705;29;20495;-86
2022/04/28 11:22:02;;;;;;;3.93;3.63;;;24.20;54.00;;;;;;4868048;29;20525;-82
2022/04/28 11:27:05;;;;;;;4.07;3.77;;;24.90;52.20;;;;;;4646031;27;21334;-82
2022/04/28 11:29:32;;;;;;;3.90;3.60;;;25.10;50.40;;;;;;4916283;29;20464;-84
2022/04/28 11:32:00;;;;;;;3.63;3.30;;;25.40;51.00;;;;;;4906472;29;20447;-83
2022/04/28 11:34:29;;;;;;;4.73;4.33;;;25.40;49.30;;;;;;4916678;29;20485;-84
2022/04/28 11:36:56;;;;;;;4.30;4.00;;;25.70;51.60;;;;;;4901396;29;20455;-83
2022/04/28 11:39:25;;;;;;;3.40;3.20;;;26.00;48.60;;;;;;4898390;29;20499;-84
2022/04/28 11:41:54;;;;;;;3.60;3.40;;;26.30;47.40;;;;;;4903224;29;20486;-84
2022/04/28 11:44:21;;;;;;;3.60;3.30;;;26.60;44.80;;;;;;4903749;29;20488;-84
2022/04/28 11:46:50;;;;;;;3.80;3.50;;;26.70;45.10;;;;;;4899596;29;20473;-85
2022/04/28 11:49:18;;;;;;;3.83;3.53;;;27.10;44.40;;;;;;4901051;29;20455;-83
2022/04/28 11:51:45;;;;;;;3.37;3.07;;;27.30;42.00;;;;;;4901064;29;20455;-82
2022/04/28 11:54:23;;;;;;;4.07;3.77;;;27.20;42.20;;;;;;4905622;29;20565;-84
2022/04/28 11:56:52;;;;;;;3.73;3.43;;;27.00;43.50;;;;;;4908742;29;20495;-83
2022/04/28 11:59:19;;;;;;;3.30;3.00;;;27.10;42.50;;;;;;4906939;29;20510;-83
2022/04/28 12:01:46;;;;;;;3.30;3.00;;;26.90;43.20;;;;;;4910583;29;20464;-83
2022/04/28 12:04:16;;;;;;;3.20;3.00;;;27.10;43.60;;;;;;4917585;29;20479;-83
2022/04/28 12:06:46;;;;;;;3.90;3.33;;;27.20;43.00;;;;;;4908733;29;20455;-81
2022/04/28 12:14:44;;;;;;;3.60;3.33;;;27.40;40.20;;;;;;4895483;29;20525;-81
2022/04/28 12:19:56;;;;;;;3.37;3.17;;;28.50;41.50;;;;;;4904823;29;20539;-82
2022/04/28 12:22:32;;;;;;;5.00;3.93;;;28.60;39.60;;;;;;4904116;29;20967;-82
2022/04/28 12:25:07;;;;;;;3.90;3.60;;;28.60;39.50;;;;;;4905007;29;20476;-81
2022/04/28 12:27:45;;;;;;;3.40;3.20;;;28.40;38.60;;;;;;4904919;29;20448;-83
2022/04/28 12:30:14;;;;;;;3.50;3.30;;;28.30;39.10;;;;;;4894031;29;20453;-83
2022/04/28 12:32:53;;;;;;;4.17;3.87;;;28.70;41.20;;;;;;4901075;29;20465;-82
2022/04/28 12:35:27;;;;;;;4.03;3.73;;;28.70;38.90;;;;;;4907707;29;20479;-84
2022/04/28 12:37:59;;;;;;;4.10;2.90;;;28.20;36.60;;;;;;4910742;29;20554;-84
2022/04/28 12:40:27;;;;;;;3.90;3.60;;;27.90;38.40;;;;;;4904393;29;20502;-84
2022/04/28 12:42:57;;;;;;;3.53;3.30;;;28.00;40.50;;;;;;4907055;29;20474;-80
2022/04/28 12:45:40;;;;;;;3.70;3.40;;;28.20;38.90;;;;;;4904597;29;20482;-79
2022/04/28 12:48:08;;;;;;;3.97;3.67;;;28.20;37.90;;;;;;4905414;29;20482;-81
2022/04/28 12:50:35;;;;;;;4.10;3.70;;;28.30;37.30;;;;;;4905899;29;20452;-82
2022/04/28 12:53:03;;;;;;;3.77;3.53;;;28.80;37.20;;;;;;4903190;29;20471;-84
2022/04/28 12:55:36;;;;;;;3.83;3.50;;;29.30;37.70;;;;;;4905604;29;20631;-83
2022/04/28 12:58:04;;;;;;;3.97;3.77;;;30.10;37.50;;;;;;4900435;29;20467;-83
2022/04/28 13:00:38;;;;;;;4.03;3.73;;;30.20;35.40;;;;;;4899943;29;20501;-85
2022/04/28 13:03:08;;;;;;;3.83;3.53;;;30.40;34.60;;;;;;4915563;29;20463;-82
2022/04/28 13:05:35;;;;;;;4.27;3.97;;;30.70;34.00;;;;;;4912943;29;20494;-84
2022/04/28 13:08:02;;;;;;;3.90;3.70;;;30.60;34.80;;;;;;4908954;29;20467;-84
2022/04/28 13:10:29;;;;;;;3.40;3.20;;;30.50;35.40;;;;;;4905761;29;20465;-84
2022/04/28 13:12:55;;;;;;;4.53;4.13;;;30.70;35.90;;;;;;4906149;29;20459;-84
2022/04/28 13:15:24;;;;;;;3.57;3.37;;;30.90;34.50;;;;;;4905180;29;20479;-84
2022/04/28 13:17:50;;;;;;;3.77;3.47;;;31.00;33.10;;;;;;4906752;29;20463;-82
2022/04/28 13:23:08;;;;;;;3.83;3.53;;;31.40;33.60;;;;;;4911958;29;20865;-83
2022/04/28 13:25:36;;;;;;;3.60;3.40;;;31.30;33.30;;;;;;4909180;29;20577;-85
2022/04/28 13:28:35;;;;;;;3.17;2.97;;;31.20;34.00;;;;;;4895711;29;20977;-83
2022/04/28 13:31:06;;;;;;;4.10;3.80;;;31.30;33.30;;;;;;4904261;29;20471;-83
2022/04/28 13:33:33;;;;;;;4.07;3.87;;;30.70;33.80;;;;;;4911626;29;20459;-81
2022/04/28 13:36:02;;;;;;;3.33;3.13;;;30.40;33.80;;;;;;4919368;29;20466;-82